createdAt,value
2017-06-18T00:01:33.098Z,17.90
2017-06-18T00:03:59.339Z,17.90
2017-06-18T00:06:25.655Z,18.20
2017-06-18T00:08:52.063Z,18.00
2017-06-18T00:11:18.311Z,18.10
2017-06-18T00:13:44.547Z,17.90
2017-06-18T00:17:36.747Z,17.50
2017-06-18T00:20:03.002Z,17.70
2017-06-18T00:22:29.286Z,17.90
2017-06-18T00:24:55.540Z,17.40
2017-06-18T00:27:21.786Z,17.70
2017-06-18T00:29:48.038Z,17.30
2017-06-18T00:32:14.368Z,17.50
2017-06-18T00:34:40.601Z,17.50
2017-06-18T00:37:06.915Z,17.40
2017-06-18T00:39:33.248Z,17.60
2017-06-18T00:41:59.486Z,17.40
2017-06-18T00:44:25.853Z,17.50
2017-06-18T00:46:52.102Z,17.60
2017-06-18T00:49:18.340Z,17.50
2017-06-18T00:51:44.565Z,17.20
2017-06-18T00:54:10.866Z,17.50
2017-06-18T00:56:37.185Z,17.20
2017-06-18T00:59:03.435Z,17.20
2017-06-18T01:01:29.691Z,17.40
2017-06-18T01:03:56.049Z,17.20
2017-06-18T01:06:22.303Z,16.90
2017-06-18T01:08:48.640Z,17.10
2017-06-18T01:11:14.874Z,17.10
2017-06-18T01:13:41.126Z,16.90
2017-06-18T01:17:37.470Z,16.80
2017-06-18T01:20:03.710Z,17.10
2017-06-18T01:22:29.953Z,16.70
2017-06-18T01:24:56.299Z,16.90
2017-06-18T01:27:22.630Z,17.00
2017-06-18T01:29:48.898Z,16.80
2017-06-18T01:32:15.167Z,16.90
2017-06-18T01:34:41.456Z,16.70
2017-06-18T01:37:07.728Z,17.00
2017-06-18T01:39:34.051Z,16.70
2017-06-18T01:42:00.283Z,17.00
2017-06-18T01:44:26.574Z,16.80
2017-06-18T01:46:52.840Z,16.60
2017-06-18T01:49:19.107Z,17.00
2017-06-18T01:51:45.462Z,16.70
2017-06-18T01:54:11.719Z,16.90
2017-06-18T01:56:37.945Z,16.70
2017-06-18T01:59:04.395Z,16.20
2017-06-18T02:01:30.646Z,16.30
2017-06-18T02:03:56.921Z,16.30
2017-06-18T02:06:23.231Z,16.40
2017-06-18T02:08:49.473Z,16.40
2017-06-18T02:11:15.795Z,16.30
2017-06-18T02:13:42.064Z,16.30
2017-06-18T02:17:38.161Z,16.30
2017-06-18T02:20:04.403Z,16.20
2017-06-18T02:22:30.733Z,16.30
2017-06-18T02:24:56.978Z,16.20
2017-06-18T02:27:23.219Z,16.30
2017-06-18T02:29:49.545Z,16.20
2017-06-18T02:32:15.795Z,16.40
2017-06-18T02:34:42.158Z,15.90
2017-06-18T02:37:08.403Z,16.20
2017-06-18T02:39:34.834Z,16.30
2017-06-18T02:42:01.072Z,16.20
2017-06-18T02:44:27.534Z,16.20
2017-06-18T02:46:53.799Z,16.00
2017-06-18T02:49:20.069Z,16.20
2017-06-18T02:51:46.417Z,16.20
2017-06-18T02:54:12.667Z,16.30
2017-06-18T02:56:38.928Z,16.10
2017-06-18T02:59:05.272Z,16.30
2017-06-18T03:01:31.517Z,16.20
2017-06-18T03:03:57.762Z,16.20
2017-06-18T03:06:24.102Z,16.40
2017-06-18T03:08:50.367Z,16.30
2017-06-18T03:11:16.599Z,16.20
2017-06-18T03:13:42.844Z,16.40
2017-06-18T03:17:37.527Z,16.20
2017-06-18T03:20:03.762Z,16.10
2017-06-18T03:22:30.105Z,16.20
2017-06-18T03:24:56.349Z,16.40
2017-06-18T03:27:22.619Z,16.30
2017-06-18T03:29:48.874Z,16.30
2017-06-18T03:32:15.107Z,16.10
2017-06-18T03:34:41.431Z,16.40
2017-06-18T03:37:07.687Z,16.40
2017-06-18T03:39:33.913Z,16.20
2017-06-18T03:42:00.157Z,16.40
2017-06-18T03:44:26.397Z,16.50
2017-06-18T03:46:52.652Z,16.30
2017-06-18T03:49:18.863Z,16.40
2017-06-18T03:51:45.189Z,16.30
2017-06-18T03:54:11.448Z,16.30
2017-06-18T03:56:37.691Z,16.30
2017-06-18T03:59:04.129Z,16.40
2017-06-18T04:01:30.387Z,16.20
2017-06-18T04:03:56.614Z,16.20
2017-06-18T04:06:22.951Z,16.20
2017-06-18T04:08:49.188Z,16.20
2017-06-18T04:11:15.426Z,16.30
2017-06-18T04:13:41.763Z,16.20
2017-06-18T04:17:37.854Z,16.20
2017-06-18T04:20:04.131Z,16.30
2017-06-18T04:22:30.371Z,16.20
2017-06-18T04:24:56.610Z,16.50
2017-06-18T04:27:22.838Z,16.50
2017-06-18T04:29:49.083Z,16.50
2017-06-18T04:32:15.364Z,16.90
2017-06-18T04:34:41.703Z,16.70
2017-06-18T04:37:07.973Z,16.90
2017-06-18T04:39:34.288Z,16.60
2017-06-18T04:42:00.531Z,16.60
2017-06-18T04:44:26.842Z,16.70
2017-06-18T04:46:53.111Z,16.80
2017-06-18T04:49:19.352Z,16.80
2017-06-18T04:51:45.686Z,16.70
2017-06-18T04:54:11.935Z,17.00
2017-06-18T04:56:38.189Z,16.80
2017-06-18T04:59:04.430Z,17.10
2017-06-18T05:01:30.684Z,17.10
2017-06-18T05:03:56.941Z,16.90
2017-06-18T05:06:23.196Z,17.10
2017-06-18T05:08:49.445Z,16.80
2017-06-18T05:11:15.699Z,17.10
2017-06-18T05:13:41.927Z,17.50
2017-06-18T05:17:37.887Z,17.50
2017-06-18T05:20:04.143Z,17.20
2017-06-18T05:22:30.392Z,17.20
2017-06-18T05:24:56.676Z,17.60
2017-06-18T05:27:22.923Z,17.60
2017-06-18T05:29:49.371Z,17.60
2017-06-18T05:32:15.662Z,17.70
2017-06-18T05:34:41.905Z,18.10
2017-06-18T05:37:08.207Z,17.90
2017-06-18T05:39:34.498Z,18.10
2017-06-18T05:42:00.831Z,17.90
2017-06-18T05:44:27.106Z,18.10
2017-06-18T05:46:53.390Z,17.80
2017-06-18T05:49:19.712Z,18.00
2017-06-18T05:51:45.980Z,18.30
2017-06-18T05:54:12.243Z,18.50
2017-06-18T05:56:38.500Z,18.50
2017-06-18T05:59:04.847Z,17.80
2017-06-18T06:01:31.147Z,18.30
2017-06-18T06:03:57.412Z,18.40
2017-06-18T06:06:23.688Z,18.50
2017-06-18T06:08:49.947Z,18.70
2017-06-18T06:11:16.355Z,18.90
2017-06-18T06:13:42.638Z,18.60
2017-06-18T06:17:36.655Z,18.70
2017-06-18T06:20:02.898Z,19.00
2017-06-18T06:22:29.147Z,19.20
2017-06-18T06:24:55.395Z,19.10
2017-06-18T06:27:21.710Z,19.10
2017-06-18T06:29:47.962Z,19.30
2017-06-18T06:32:14.267Z,19.70
2017-06-18T06:34:40.559Z,19.90
2017-06-18T06:37:06.798Z,19.80
2017-06-18T06:39:33.139Z,20.00
2017-06-18T06:41:59.396Z,19.80
2017-06-18T06:44:25.674Z,20.10
2017-06-18T06:46:51.903Z,20.20
2017-06-18T06:49:18.139Z,20.50
2017-06-18T06:51:44.457Z,20.50
2017-06-18T06:54:10.719Z,20.60
2017-06-18T06:56:37.125Z,20.70
2017-06-18T06:59:03.380Z,20.60
2017-06-18T07:01:29.647Z,20.70
2017-06-18T07:03:55.979Z,20.80
2017-06-18T07:06:22.295Z,20.60
2017-06-18T07:08:48.599Z,20.90
2017-06-18T07:11:14.812Z,20.70
2017-06-18T07:13:41.044Z,21.30
2017-06-18T07:17:37.352Z,21.30
2017-06-18T07:20:03.737Z,21.40
2017-06-18T07:22:30.039Z,21.70
2017-06-18T07:24:56.340Z,22.00
2017-06-18T07:27:22.623Z,22.60
2017-06-18T07:29:48.845Z,24.20
2017-06-18T07:32:15.092Z,25.10
2017-06-18T07:34:41.342Z,25.90
2017-06-18T07:37:07.635Z,26.50
2017-06-18T07:39:33.939Z,26.90
2017-06-18T07:42:00.172Z,27.30
2017-06-18T07:44:26.395Z,27.50
2017-06-18T07:46:52.659Z,28.20
2017-06-18T07:49:18.930Z,28.30
2017-06-18T07:51:45.257Z,27.90
2017-06-18T07:54:11.563Z,27.90
2017-06-18T08:27:46.477Z,29.30
2017-06-18T08:30:12.707Z,29.30
2017-06-18T08:32:39.039Z,29.50
2017-06-18T08:35:05.288Z,29.20
2017-06-18T09:46:06.567Z,29.30
2017-06-18T09:48:40.481Z,29.70
2017-06-18T09:51:13.512Z,29.20
2017-06-18T09:53:47.014Z,29.90
2017-06-18T09:56:21.639Z,29.90
2017-06-18T09:58:54.668Z,29.60
2017-06-18T10:01:29.576Z,29.60
2017-06-18T10:04:02.010Z,29.60
2017-06-18T10:06:34.444Z,29.80
2017-06-18T10:09:06.751Z,29.50
2017-06-18T10:11:39.264Z,29.50
2017-06-18T10:14:12.443Z,30.00
2017-06-18T10:16:44.846Z,30.10
2017-06-18T10:19:18.311Z,29.90
2017-06-18T10:21:57.456Z,29.70
2017-06-18T10:24:30.176Z,30.00
2017-06-18T10:27:03.180Z,30.10
2017-06-18T10:29:35.752Z,30.60
2017-06-18T10:32:08.267Z,30.60
2017-06-18T10:34:40.787Z,30.50
2017-06-18T10:37:13.999Z,30.90
2017-06-18T10:39:46.542Z,31.30
2017-06-18T10:42:19.730Z,31.50
2017-06-18T10:44:52.377Z,31.40
2017-06-18T10:47:26.679Z,31.80
2017-06-18T10:49:59.560Z,31.70
2017-06-18T10:52:32.813Z,31.20
2017-06-18T10:55:05.211Z,31.20
2017-06-18T10:57:37.567Z,31.40
2017-06-18T11:00:10.911Z,31.20
2017-06-18T11:02:44.080Z,31.60
2017-06-18T11:05:18.001Z,31.20
2017-06-18T11:07:50.803Z,30.80
2017-06-18T11:10:24.163Z,30.60
2017-06-18T11:12:57.288Z,30.80
2017-06-18T11:15:31.003Z,31.10
2017-06-18T11:18:03.679Z,31.30
2017-06-18T11:20:36.219Z,31.70
2017-06-18T11:23:11.287Z,31.50
2017-06-18T11:25:43.988Z,31.00
2017-06-18T11:28:16.418Z,31.30
2017-06-18T11:30:49.559Z,31.40
2017-06-18T11:33:22.288Z,31.70
2017-06-18T11:35:55.341Z,32.10
2017-06-18T11:38:27.808Z,32.10
2017-06-18T11:41:00.887Z,32.60
2017-06-18T11:43:33.367Z,33.00
2017-06-18T11:46:06.484Z,32.30
2017-06-18T11:48:40.905Z,32.40
2017-06-18T11:51:13.158Z,32.90
2017-06-18T11:53:45.566Z,32.80
2017-06-18T11:56:18.679Z,32.70
2017-06-18T11:58:51.219Z,32.20
2017-06-18T12:01:24.328Z,31.50
2017-06-18T12:03:57.673Z,31.10
2017-06-18T12:06:30.840Z,31.30
2017-06-18T12:09:03.487Z,31.30
2017-06-18T12:11:36.691Z,31.50
2017-06-18T12:14:09.139Z,30.30
2017-06-18T12:16:41.469Z,30.70
2017-06-18T12:19:13.979Z,31.20
2017-06-18T12:21:47.110Z,31.90
2017-06-18T12:24:19.611Z,32.80
2017-06-18T12:26:52.729Z,33.10
2017-06-18T12:29:25.142Z,33.00
2017-06-18T12:31:58.323Z,32.80
2017-06-18T12:34:30.846Z,32.70
2017-06-18T12:37:03.241Z,32.50
2017-06-18T12:39:35.831Z,32.30
2017-06-18T12:42:09.096Z,31.90
2017-06-18T12:44:41.489Z,31.30
2017-06-18T12:47:13.733Z,31.50
2017-06-18T12:49:47.907Z,31.40
2017-06-18T12:52:20.472Z,31.40
2017-06-18T12:54:53.042Z,31.30
2017-06-18T12:57:25.265Z,31.50
2017-06-18T12:59:57.769Z,31.40
2017-06-18T13:02:30.941Z,32.00
2017-06-18T13:05:04.275Z,32.80
2017-06-18T13:07:37.489Z,33.30
2017-06-18T13:10:09.994Z,33.10
2017-06-18T13:12:43.274Z,32.50
2017-06-18T13:15:15.693Z,31.90
2017-06-18T13:17:48.879Z,32.00
2017-06-18T13:20:21.262Z,32.50
2017-06-18T13:22:53.533Z,32.50
2017-06-18T13:25:25.919Z,32.90
2017-06-18T13:27:58.214Z,33.00
2017-06-18T13:30:30.626Z,32.90
2017-06-18T13:33:03.780Z,33.00
2017-06-18T13:35:37.228Z,32.50
2017-06-18T13:38:09.827Z,32.50
2017-06-18T13:40:42.590Z,32.50
2017-06-18T13:43:15.691Z,33.00
2017-06-18T13:45:48.147Z,33.00
2017-06-18T13:48:20.431Z,33.20
2017-06-18T13:50:54.984Z,33.50
2017-06-18T13:53:27.206Z,33.00
2017-06-18T13:55:59.599Z,32.90
2017-06-18T13:58:31.875Z,32.90
2017-06-18T14:01:04.632Z,32.90
2017-06-18T14:03:37.744Z,32.80
2017-06-18T14:06:10.212Z,33.00
2017-06-18T14:08:42.550Z,32.50
2017-06-18T14:11:15.171Z,32.40
2017-06-18T14:13:48.091Z,32.80
2017-06-18T14:16:20.731Z,33.20
2017-06-18T14:18:53.892Z,33.30
2017-06-18T14:21:27.247Z,34.00
2017-06-18T14:23:59.567Z,34.10
2017-06-18T14:26:32.101Z,33.80
2017-06-18T14:29:05.333Z,33.80
2017-06-18T14:31:37.986Z,33.50
2017-06-18T14:34:11.136Z,33.00
2017-06-18T14:36:43.706Z,32.70
2017-06-18T14:39:16.815Z,32.40
2017-06-18T14:41:49.295Z,32.20
2017-06-18T14:44:22.448Z,32.50
2017-06-18T14:46:55.838Z,32.30
2017-06-18T14:49:28.994Z,32.00
2017-06-18T14:52:02.856Z,32.20
2017-06-18T14:54:35.858Z,32.10
2017-06-18T14:57:08.321Z,32.40
2017-06-18T14:59:40.726Z,32.60
2017-06-18T15:02:13.143Z,33.10
2017-06-18T15:04:46.359Z,33.40
2017-06-18T15:07:18.775Z,33.40
2017-06-18T15:09:51.931Z,33.30
2017-06-18T15:12:24.471Z,33.30
2017-06-18T15:14:56.748Z,33.50
2017-06-18T15:17:29.139Z,33.80
2017-06-18T15:20:02.331Z,34.10
2017-06-18T15:22:34.748Z,33.90
2017-06-18T15:25:06.979Z,33.10
2017-06-18T15:27:39.498Z,32.70
2017-06-18T15:30:11.753Z,33.00
2017-06-18T15:42:24.063Z,32.80
2017-06-18T15:44:56.669Z,33.10
2017-06-18T15:47:29.758Z,33.10
2017-06-18T15:50:02.215Z,33.20
2017-06-18T15:52:36.023Z,33.00
2017-06-18T15:55:08.856Z,32.90
2017-06-18T15:57:42.060Z,32.80
2017-06-18T16:00:14.770Z,32.50
2017-06-18T16:02:47.871Z,32.10
2017-06-18T16:05:20.393Z,32.10
2017-06-18T16:07:53.493Z,32.40
2017-06-18T16:10:25.948Z,32.70
2017-06-18T16:12:59.010Z,32.90
2017-06-18T16:15:31.756Z,33.00
2017-06-18T16:18:04.906Z,33.10
2017-06-18T16:20:37.311Z,33.10
2017-06-18T16:23:10.414Z,33.10
2017-06-18T16:25:42.998Z,32.90
2017-06-18T16:28:16.138Z,32.80
2017-06-18T16:30:48.532Z,32.60
2017-06-18T16:33:20.831Z,32.80
2017-06-18T16:35:53.228Z,32.90
2017-06-18T16:38:26.364Z,32.90
2017-06-18T16:40:58.979Z,32.90
2017-06-18T16:43:31.215Z,32.90
2017-06-18T16:46:03.823Z,32.90
2017-06-18T16:48:36.067Z,32.70
2017-06-18T16:51:08.618Z,32.40
2017-06-18T16:53:41.931Z,32.20
2017-06-18T16:56:14.682Z,32.10
2017-06-18T16:58:46.973Z,32.00
2017-06-18T17:01:20.445Z,31.90
2017-06-18T17:03:53.501Z,31.90
2017-06-18T17:06:25.932Z,31.90
2017-06-18T17:08:59.099Z,31.90
2017-06-18T17:11:31.527Z,31.80
2017-06-18T17:14:04.775Z,31.70
2017-06-18T17:16:37.244Z,31.70
2017-06-18T17:19:10.513Z,31.60
2017-06-18T17:21:49.027Z,31.60
2017-06-18T17:24:22.160Z,31.70
2017-06-18T17:26:55.554Z,31.60
2017-06-18T17:29:28.799Z,31.40
2017-06-18T17:32:02.221Z,31.40
2017-06-18T17:34:35.476Z,31.50
2017-06-18T17:37:07.885Z,31.50
2017-06-18T17:39:41.192Z,31.40
2017-06-18T17:42:13.621Z,31.40
2017-06-18T17:44:46.871Z,31.30
2017-06-18T17:47:20.396Z,31.20
2017-06-18T17:49:53.402Z,31.10
2017-06-18T17:52:26.096Z,30.90
2017-06-18T17:55:01.191Z,30.80
2017-06-18T17:57:33.883Z,30.80
2017-06-18T18:00:06.964Z,30.70
2017-06-18T18:02:39.424Z,30.60
2017-06-18T18:05:11.719Z,30.50
2017-06-18T18:07:45.085Z,30.50
2017-06-18T18:10:18.244Z,30.30
2017-06-18T18:12:50.760Z,30.20
2017-06-18T18:15:23.089Z,30.10
2017-06-18T18:17:55.533Z,30.10
2017-06-18T18:20:28.745Z,30.00
2017-06-18T18:23:01.233Z,29.90
2017-06-18T18:25:34.303Z,29.80
2017-06-18T18:28:07.075Z,29.80
2017-06-18T18:30:40.236Z,29.70
2017-06-18T18:33:12.719Z,29.70
2017-06-18T18:35:45.953Z,29.50
2017-06-18T18:38:18.436Z,29.50
2017-06-18T18:40:51.482Z,29.30
2017-06-18T18:43:24.099Z,29.30
2017-06-18T18:45:57.269Z,29.00
2017-06-18T18:48:29.813Z,28.70
2017-06-18T18:51:02.968Z,28.60
2017-06-18T18:53:35.971Z,28.60
2017-06-18T18:56:09.014Z,28.30
2017-06-18T18:58:42.471Z,28.10
2017-06-18T19:01:15.706Z,28.10
2017-06-18T19:03:48.247Z,28.00
2017-06-18T19:06:21.690Z,27.80
2017-06-18T19:08:55.335Z,27.80
2017-06-18T19:11:28.237Z,27.70
2017-06-18T19:14:00.858Z,27.60
2017-06-18T19:16:34.028Z,27.50
2017-06-18T19:19:06.746Z,27.40
2017-06-18T19:21:39.932Z,27.30
2017-06-18T19:24:12.459Z,27.20
2017-06-18T19:26:44.983Z,27.00
2017-06-18T19:29:18.393Z,26.90
2017-06-18T19:31:51.394Z,26.80
2017-06-18T19:34:23.891Z,26.40
2017-06-18T19:36:56.337Z,26.60
2017-06-18T19:39:28.873Z,26.50
2017-06-18T19:42:02.552Z,26.30
2017-06-18T19:44:35.672Z,26.10
2017-06-18T19:47:08.002Z,26.30
2017-06-18T19:49:40.617Z,26.00
2017-06-18T19:52:12.960Z,25.90
2017-06-18T19:54:45.472Z,26.00
2017-06-18T19:57:20.459Z,25.70
2017-06-18T19:59:53.065Z,25.60
2017-06-18T20:02:25.367Z,25.10
2017-06-18T20:04:57.995Z,25.20
2017-06-18T20:07:31.209Z,25.50
2017-06-18T20:10:03.684Z,25.30
2017-06-18T20:12:36.889Z,25.20
2017-06-18T20:15:09.407Z,25.30
2017-06-18T20:17:41.715Z,24.80
2017-06-18T20:20:14.187Z,24.90
2017-06-18T20:22:46.463Z,24.70
2017-06-18T20:25:19.010Z,24.30
2017-06-18T20:27:52.153Z,24.60
2017-06-18T20:30:24.865Z,24.20
2017-06-18T20:32:58.075Z,23.90
2017-06-18T20:35:30.860Z,24.00
2017-06-18T20:38:04.148Z,24.00
2017-06-18T20:40:37.374Z,24.00
2017-06-18T20:43:10.431Z,23.80
2017-06-18T20:45:42.970Z,23.80
2017-06-18T20:48:16.430Z,23.70
2017-06-18T20:50:49.588Z,23.60
2017-06-18T20:53:22.104Z,23.70
2017-06-18T20:55:56.513Z,23.80
2017-06-18T20:58:31.197Z,23.60
2017-06-18T21:01:04.048Z,23.30
2017-06-18T21:03:36.459Z,23.20
2017-06-18T21:06:09.036Z,23.30
2017-06-18T21:08:42.179Z,23.30
2017-06-18T21:11:14.622Z,23.60
2017-06-18T21:13:47.828Z,23.20
2017-06-18T21:16:20.384Z,23.10
2017-06-18T21:18:53.460Z,23.10
2017-06-18T21:21:25.955Z,23.10
2017-06-18T21:23:59.265Z,23.00
2017-06-18T21:26:31.693Z,23.00
2017-06-18T21:29:04.016Z,23.10
2017-06-18T21:31:37.165Z,23.00
2017-06-18T21:34:09.863Z,23.20
2017-06-18T21:36:42.451Z,23.00
2017-06-18T21:39:14.706Z,23.00
2017-06-18T21:41:47.272Z,23.00
2017-06-18T21:44:20.440Z,22.30
2017-06-18T21:46:52.887Z,23.00
2017-06-18T21:49:25.129Z,22.80
2017-06-18T21:51:57.581Z,22.90
2017-06-18T21:54:30.576Z,22.10
2017-06-18T21:57:03.056Z,22.20
2017-06-18T21:59:37.183Z,22.20
2017-06-18T22:02:09.796Z,22.20
2017-06-18T22:04:42.995Z,22.30
2017-06-18T22:07:15.551Z,22.30
2017-06-18T22:09:48.643Z,21.60
2017-06-18T22:12:21.013Z,22.10
2017-06-18T22:14:54.209Z,22.30
2017-06-18T22:17:26.699Z,21.80
2017-06-18T22:19:59.776Z,21.80
2017-06-18T22:22:32.299Z,22.00
2017-06-18T22:25:05.492Z,21.70
2017-06-18T22:27:37.949Z,21.80
2017-06-18T22:30:10.212Z,21.50
2017-06-18T22:32:42.941Z,22.00
2017-06-18T22:35:15.194Z,21.60
2017-06-18T22:37:48.548Z,21.60
2017-06-18T22:40:21.698Z,21.60
2017-06-18T22:42:54.327Z,21.60
2017-06-18T22:45:26.627Z,21.50
2017-06-18T22:47:59.229Z,21.70
2017-06-18T22:50:32.422Z,21.50
2017-06-18T22:53:04.864Z,21.40
2017-06-18T22:55:38.310Z,21.40
2017-06-18T22:58:11.463Z,21.30
2017-06-18T23:00:44.701Z,21.20
2017-06-18T23:03:17.280Z,21.40
2017-06-18T23:05:50.354Z,21.40
2017-06-18T23:08:22.871Z,21.50
2017-06-18T23:10:56.027Z,21.30
2017-06-18T23:13:28.580Z,20.80
2017-06-18T23:16:01.034Z,21.30
2017-06-18T23:18:33.618Z,21.50
2017-06-18T23:21:06.830Z,20.90
2017-06-18T23:23:39.255Z,21.00
2017-06-18T23:26:11.577Z,21.10
2017-06-18T23:28:43.923Z,21.50
2017-06-18T23:31:16.374Z,21.10
2017-06-18T23:33:48.836Z,20.90
2017-06-18T23:36:21.252Z,20.90
2017-06-18T23:38:53.869Z,20.80
2017-06-18T23:41:26.167Z,20.80
2017-06-18T23:43:58.706Z,20.90
2017-06-18T23:46:30.969Z,20.90
2017-06-18T23:49:03.572Z,21.10
2017-06-18T23:51:35.822Z,20.80
2017-06-18T23:54:08.461Z,20.70
2017-06-18T23:56:40.763Z,20.70
2017-06-18T23:59:13.319Z,20.80
